LAN47CW SBGR-SCEL
Flight info
| Callsign | LAN47CW |
|---|---|
| Flight time | N/A |
| Altitude | 30000 |
| Route | UBSOD UZ38 ARTUT UM400 CBA UZ105 UMKAL UMKAL7B |
| Aircraft | A321/M-SDE3FGHIRWY/LB1 |
Departure
| Time | 2026-05-05 17:24 |
|---|---|
| Airport | São Paulo/Guarulhos–Governor André Franco Montoro International Airport (SBGR) |
Arrival
| Time | N/A |
|---|---|
| Airport | Comodoro Arturo Merino Benítez International Airport (SCEL) |
| Time | Latitude | Longitude | Altitude | Speed | Heading |
|---|---|---|---|---|---|
| 2026-05-05 17:07 | -23.42591 | -46.47321 | 2451 ft | 0 kts | 254° |
| 2026-05-05 17:08 | -23.42585 | -46.47300 | 2469 ft | 0 kts | 254° |
| 2026-05-05 17:11 | -23.42579 | -46.47279 | 2468 ft | 4 kts | 249° |
| 2026-05-05 17:11 | -23.42568 | -46.47253 | 2469 ft | 4 kts | 238° |
| 2026-05-05 17:11 | -23.42552 | -46.47230 | 2468 ft | 4 kts | 218° |
| 2026-05-05 17:11 | -23.42531 | -46.47218 | 2468 ft | 4 kts | 174° |
| 2026-05-05 17:12 | -23.42520 | -46.47220 | 2468 ft | 1 kts | 163° |
| 2026-05-05 17:17 | -23.42525 | -46.47219 | 2468 ft | 4 kts | 164° |
| 2026-05-05 17:17 | -23.42597 | -46.47199 | 2472 ft | 15 kts | 164° |
| 2026-05-05 17:18 | -23.42693 | -46.47168 | 2468 ft | 13 kts | 163° |
| 2026-05-05 17:18 | -23.42776 | -46.47140 | 2470 ft | 12 kts | 163° |
| 2026-05-05 17:18 | -23.42842 | -46.47150 | 2470 ft | 9 kts | 222° |
| 2026-05-05 17:18 | -23.42864 | -46.47203 | 2468 ft | 7 kts | 254° |
| 2026-05-05 17:19 | -23.42885 | -46.47284 | 2471 ft | 15 kts | 253° |
| 2026-05-05 17:19 | -23.42916 | -46.47394 | 2470 ft | 14 kts | 253° |
| 2026-05-05 17:19 | -23.42942 | -46.47491 | 2474 ft | 12 kts | 253° |
| 2026-05-05 17:19 | -23.42964 | -46.47572 | 2468 ft | 11 kts | 253° |
| 2026-05-05 17:20 | -23.42986 | -46.47655 | 2470 ft | 11 kts | 254° |
| 2026-05-05 17:20 | -23.43005 | -46.47728 | 2469 ft | 11 kts | 254° |
| 2026-05-05 17:20 | -23.43039 | -46.47849 | 2474 ft | 19 kts | 252° |
| 2026-05-05 17:20 | -23.43076 | -46.47980 | 2470 ft | 17 kts | 255° |
| 2026-05-05 17:21 | -23.43107 | -46.48096 | 2472 ft | 15 kts | 253° |
| 2026-05-05 17:21 | -23.43133 | -46.48194 | 2472 ft | 12 kts | 255° |
| 2026-05-05 17:21 | -23.43154 | -46.48277 | 2474 ft | 11 kts | 254° |
| 2026-05-05 17:22 | -23.43271 | -46.48375 | 2472 ft | 11 kts | 165° |
| 2026-05-05 17:22 | -23.43335 | -46.48354 | 2471 ft | 8 kts | 163° |
| 2026-05-05 17:22 | -23.43392 | -46.48314 | 2470 ft | 15 kts | 129° |
| 2026-05-05 17:22 | -23.43386 | -46.48176 | 2474 ft | 20 kts | 73° |
| 2026-05-05 17:23 | -23.43327 | -46.47962 | 2470 ft | 52 kts | 73° |
| 2026-05-05 17:23 | -23.43164 | -46.47356 | 2471 ft | 114 kts | 73° |
| 2026-05-05 17:23 | -23.42891 | -46.46352 | 2472 ft | 164 kts | 73° |
| 2026-05-05 17:23 | -23.42549 | -46.45039 | 2802 ft | 181 kts | 75° |
| 2026-05-05 17:24 | -23.42204 | -46.43722 | 3490 ft | 182 kts | 72° |
| 2026-05-05 17:24 | -23.41813 | -46.42411 | 3963 ft | 187 kts | 72° |
| 2026-05-05 17:24 | -23.41388 | -46.41005 | 4107 ft | 199 kts | 72° |
| 2026-05-05 17:24 | -23.40949 | -46.39540 | 4225 ft | 213 kts | 73° |
| 2026-05-05 17:25 | -23.40478 | -46.37951 | 4359 ft | 227 kts | 73° |
| 2026-05-05 17:25 | -23.40188 | -46.36809 | 4429 ft | 238 kts | 82° |
| 2026-05-05 17:25 | -23.40529 | -46.34393 | 4731 ft | 253 kts | 110° |
| 2026-05-05 17:25 | -23.41145 | -46.32547 | 5037 ft | 267 kts | 110° |
| 2026-05-05 17:26 | -23.41786 | -46.30616 | 5532 ft | 274 kts | 110° |
| 2026-05-05 17:26 | -23.42433 | -46.28656 | 6092 ft | 276 kts | 110° |
| 2026-05-05 17:26 | -23.43182 | -46.26724 | 6667 ft | 278 kts | 125° |
| 2026-05-05 17:26 | -23.44611 | -46.25339 | 7221 ft | 279 kts | 156° |
| 2026-05-05 17:27 | -23.46506 | -46.24963 | 7745 ft | 281 kts | 186° |
| 2026-05-05 17:27 | -23.48449 | -46.25315 | 8314 ft | 284 kts | 190° |
| 2026-05-05 17:27 | -23.50401 | -46.25724 | 8869 ft | 287 kts | 191° |
| 2026-05-05 17:27 | -23.52364 | -46.26162 | 9470 ft | 289 kts | 195° |
| 2026-05-05 17:28 | -23.54196 | -46.27074 | 10042 ft | 293 kts | 215° |
| 2026-05-05 17:28 | -23.55665 | -46.28627 | 10417 ft | 302 kts | 234° |
| 2026-05-05 17:28 | -23.56588 | -46.30745 | 10549 ft | 320 kts | 255° |
| 2026-05-05 17:28 | -23.57071 | -46.33178 | 10673 ft | 337 kts | 258° |
| 2026-05-05 17:29 | -23.57562 | -46.35739 | 10800 ft | 353 kts | 258° |
| 2026-05-05 17:29 | -23.58076 | -46.38388 | 11151 ft | 360 kts | 257° |
| 2026-05-05 17:29 | -23.58596 | -46.41036 | 11631 ft | 363 kts | 257° |
| 2026-05-05 17:29 | -23.59131 | -46.43739 | 12137 ft | 366 kts | 257° |
| 2026-05-05 17:30 | -23.59671 | -46.46465 | 12649 ft | 369 kts | 257° |
| 2026-05-05 17:30 | -23.60215 | -46.49205 | 13183 ft | 371 kts | 257° |
| 2026-05-05 17:30 | -23.60761 | -46.51974 | 13701 ft | 374 kts | 258° |
| 2026-05-05 17:30 | -23.61252 | -46.54769 | 14188 ft | 377 kts | 259° |
| 2026-05-05 17:31 | -23.61682 | -46.57599 | 14635 ft | 380 kts | 261° |
| 2026-05-05 17:31 | -23.62081 | -46.60452 | 15069 ft | 382 kts | 261° |
| 2026-05-05 17:31 | -23.62500 | -46.63322 | 15496 ft | 384 kts | 257° |
| 2026-05-05 17:31 | -23.63295 | -46.66105 | 15898 ft | 386 kts | 245° |
| 2026-05-05 17:32 | -23.64582 | -46.68677 | 16317 ft | 387 kts | 236° |
| 2026-05-05 17:32 | -23.66039 | -46.71155 | 16730 ft | 389 kts | 237° |
| 2026-05-05 17:32 | -23.67502 | -46.73650 | 17130 ft | 392 kts | 237° |
| 2026-05-05 17:32 | -23.68972 | -46.76160 | 17531 ft | 394 kts | 236° |
| 2026-05-05 17:33 | -23.70658 | -46.78514 | 17901 ft | 395 kts | 225° |
| 2026-05-05 17:33 | -23.72725 | -46.80488 | 18263 ft | 396 kts | 214° |
| 2026-05-05 17:33 | -23.75083 | -46.82058 | 18614 ft | 397 kts | 209° |
| 2026-05-05 17:33 | -23.77483 | -46.83558 | 18929 ft | 399 kts | 209° |
| 2026-05-05 17:34 | -23.79893 | -46.85070 | 19237 ft | 400 kts | 210° |
| 2026-05-05 17:34 | -23.82312 | -46.86594 | 19554 ft | 402 kts | 210° |
| 2026-05-05 17:34 | -23.84740 | -46.88128 | 19872 ft | 404 kts | 210° |
| 2026-05-05 17:34 | -23.87171 | -46.89670 | 20186 ft | 405 kts | 210° |
| 2026-05-05 17:35 | -23.89613 | -46.91220 | 20501 ft | 407 kts | 210° |
| 2026-05-05 17:35 | -23.92067 | -46.92775 | 20818 ft | 408 kts | 210° |
| 2026-05-05 17:35 | -23.94531 | -46.94335 | 21132 ft | 410 kts | 210° |
| 2026-05-05 17:35 | -23.97005 | -46.95901 | 21452 ft | 412 kts | 210° |
| 2026-05-05 17:36 | -23.99489 | -46.97470 | 21768 ft | 413 kts | 210° |
| 2026-05-05 17:36 | -24.01986 | -46.99046 | 22082 ft | 415 kts | 210° |
| 2026-05-05 17:36 | -24.04486 | -47.00629 | 22380 ft | 417 kts | 210° |
| 2026-05-05 17:36 | -24.07005 | -47.02230 | 22687 ft | 418 kts | 210° |
| 2026-05-05 17:37 | -24.09526 | -47.03836 | 22987 ft | 420 kts | 210° |
| 2026-05-05 17:37 | -24.12056 | -47.05447 | 23294 ft | 422 kts | 210° |
| 2026-05-05 17:37 | -24.14601 | -47.07062 | 23597 ft | 424 kts | 210° |
| 2026-05-05 17:37 | -24.17161 | -47.08686 | 23868 ft | 425 kts | 210° |
| 2026-05-05 17:38 | -24.19727 | -47.10311 | 24140 ft | 427 kts | 210° |
| 2026-05-05 17:38 | -24.22266 | -47.11921 | 24409 ft | 428 kts | 211° |
| 2026-05-05 17:38 | -24.24877 | -47.13581 | 24685 ft | 429 kts | 211° |
| 2026-05-05 17:38 | -24.27416 | -47.15215 | 24965 ft | 429 kts | 212° |
| 2026-05-05 17:39 | -24.29965 | -47.16932 | 25238 ft | 430 kts | 213° |
| 2026-05-05 17:39 | -24.32495 | -47.18699 | 25511 ft | 431 kts | 213° |
| 2026-05-05 17:39 | -24.35015 | -47.20488 | 25783 ft | 432 kts | 214° |
| 2026-05-05 17:39 | -24.37544 | -47.22285 | 26066 ft | 433 kts | 214° |
| 2026-05-05 17:40 | -24.40082 | -47.24076 | 26333 ft | 434 kts | 213° |
| 2026-05-05 17:40 | -24.42637 | -47.25864 | 26589 ft | 435 kts | 213° |
| 2026-05-05 17:40 | -24.45201 | -47.27643 | 26851 ft | 436 kts | 213° |
| 2026-05-05 17:40 | -24.47770 | -47.29421 | 27104 ft | 437 kts | 213° |
| 2026-05-05 17:41 | -24.50344 | -47.31207 | 27357 ft | 438 kts | 213° |
| 2026-05-05 17:41 | -24.52921 | -47.33002 | 27577 ft | 439 kts | 214° |
| 2026-05-05 17:41 | -24.55497 | -47.34803 | 27823 ft | 440 kts | 214° |
| 2026-05-05 17:41 | -24.58083 | -47.36612 | 28061 ft | 441 kts | 214° |
| 2026-05-05 17:42 | -24.60675 | -47.38420 | 28282 ft | 442 kts | 214° |
| 2026-05-05 17:42 | -24.63273 | -47.40229 | 28514 ft | 443 kts | 214° |
| 2026-05-05 17:42 | -24.65881 | -47.42044 | 28742 ft | 443 kts | 214° |
| 2026-05-05 17:42 | -24.68487 | -47.43865 | 28973 ft | 444 kts | 214° |
| 2026-05-05 17:43 | -24.71095 | -47.45694 | 29248 ft | 444 kts | 214° |
| 2026-05-05 17:43 | -24.73697 | -47.47520 | 29582 ft | 442 kts | 214° |
| 2026-05-05 17:43 | -24.76288 | -47.49331 | 29904 ft | 441 kts | 214° |
| 2026-05-05 17:43 | -24.78876 | -47.51140 | 30120 ft | 440 kts | 214° |
| 2026-05-05 17:44 | -24.81429 | -47.52927 | 30154 ft | 431 kts | 214° |
| 2026-05-05 17:44 | -24.86449 | -47.56441 | 30151 ft | 426 kts | 214° |
| 2026-05-05 17:45 | -24.91443 | -47.59947 | 30148 ft | 425 kts | 214° |
| 2026-05-05 17:45 | -24.96400 | -47.63426 | 30148 ft | 425 kts | 214° |
| 2026-05-05 17:46 | -25.01383 | -47.66935 | 30151 ft | 425 kts | 214° |
| 2026-05-05 17:46 | -25.06375 | -47.70451 | 30148 ft | 425 kts | 214° |
| 2026-05-05 17:47 | -25.11357 | -47.73964 | 30159 ft | 425 kts | 214° |
| 2026-05-05 17:47 | -25.16344 | -47.77475 | 30154 ft | 425 kts | 214° |
| 2026-05-05 17:48 | -25.21320 | -47.80988 | 30157 ft | 425 kts | 215° |
| 2026-05-05 17:48 | -25.26301 | -47.84509 | 30152 ft | 424 kts | 215° |
| 2026-05-05 17:49 | -25.31268 | -47.88024 | 30156 ft | 424 kts | 215° |
| 2026-05-05 17:49 | -25.36236 | -47.91546 | 30146 ft | 424 kts | 215° |
| 2026-05-05 17:50 | -25.41195 | -47.95066 | 30144 ft | 424 kts | 215° |
| 2026-05-05 17:50 | -25.46153 | -47.98584 | 30149 ft | 424 kts | 215° |
| 2026-05-05 17:51 | -25.51087 | -48.02087 | 30148 ft | 424 kts | 215° |
| 2026-05-05 17:51 | -25.56042 | -48.05621 | 30148 ft | 424 kts | 215° |
| 2026-05-05 17:52 | -25.60869 | -48.09339 | 30149 ft | 421 kts | 224° |
| 2026-05-05 17:52 | -25.64478 | -48.14357 | 30156 ft | 416 kts | 243° |
| 2026-05-05 17:53 | -25.66953 | -48.20151 | 30145 ft | 416 kts | 245° |
| 2026-05-05 17:53 | -25.69416 | -48.25962 | 30140 ft | 416 kts | 245° |
| 2026-05-05 17:54 | -25.71890 | -48.31779 | 30140 ft | 417 kts | 245° |
| 2026-05-05 17:54 | -25.74352 | -48.37596 | 30136 ft | 417 kts | 245° |
| 2026-05-05 17:55 | -25.76806 | -48.43422 | 30137 ft | 417 kts | 245° |
| 2026-05-05 17:55 | -25.79261 | -48.49247 | 30134 ft | 417 kts | 245° |
| 2026-05-05 17:56 | -25.81714 | -48.55080 | 30133 ft | 417 kts | 245° |
| 2026-05-05 17:56 | -25.84182 | -48.60950 | 30302 ft | 422 kts | 245° |
| 2026-05-05 17:56 | -25.85425 | -48.63908 | 30451 ft | 424 kts | 245° |
| 2026-05-05 17:57 | -25.86668 | -48.66876 | 30657 ft | 424 kts | 245° |
| 2026-05-05 17:57 | -25.87909 | -48.69843 | 30893 ft | 423 kts | 245° |
| 2026-05-05 17:57 | -25.89146 | -48.72801 | 31148 ft | 422 kts | 245° |
| 2026-05-05 17:57 | -25.90383 | -48.75754 | 31410 ft | 421 kts | 245° |
| 2026-05-05 17:58 | -25.91602 | -48.78664 | 31663 ft | 420 kts | 245° |
| 2026-05-05 17:58 | -25.92830 | -48.81602 | 31929 ft | 418 kts | 245° |
| 2026-05-05 17:58 | -25.94051 | -48.84533 | 32111 ft | 418 kts | 245° |
| 2026-05-05 17:59 | -25.96488 | -48.90388 | 32156 ft | 416 kts | 245° |
| 2026-05-05 17:59 | -25.98920 | -48.96229 | 32153 ft | 416 kts | 245° |
| 2026-05-05 18:00 | -26.01343 | -49.02062 | 32159 ft | 415 kts | 245° |
| 2026-05-05 18:00 | -26.03356 | -49.06905 | 32162 ft | 415 kts | 245° |
| 2026-05-05 18:01 | -26.05775 | -49.12739 | 32168 ft | 415 kts | 245° |
| 2026-05-05 18:01 | -26.08190 | -49.18566 | 32174 ft | 415 kts | 245° |
| 2026-05-05 18:02 | -26.10602 | -49.24390 | 32176 ft | 414 kts | 245° |
| 2026-05-05 18:02 | -26.13013 | -49.30208 | 32176 ft | 414 kts | 245° |
| 2026-05-05 18:03 | -26.15423 | -49.36021 | 32183 ft | 413 kts | 245° |
| 2026-05-05 18:03 | -26.17821 | -49.41834 | 32191 ft | 413 kts | 245° |
| 2026-05-05 18:04 | -26.20222 | -49.47643 | 32192 ft | 413 kts | 245° |
| 2026-05-05 18:04 | -26.22614 | -49.53459 | 32191 ft | 412 kts | 245° |
| 2026-05-05 18:05 | -26.24996 | -49.59270 | 32194 ft | 412 kts | 245° |
| 2026-05-05 18:05 | -26.27357 | -49.65080 | 32194 ft | 411 kts | 245° |
| 2026-05-05 18:06 | -26.29713 | -49.70884 | 32190 ft | 411 kts | 245° |
| 2026-05-05 18:06 | -26.32069 | -49.76689 | 32189 ft | 411 kts | 245° |
| 2026-05-05 18:07 | -26.34429 | -49.82498 | 32188 ft | 411 kts | 245° |
| 2026-05-05 18:07 | -26.36796 | -49.88290 | 32185 ft | 410 kts | 244° |
| 2026-05-05 18:08 | -26.39172 | -49.94085 | 32185 ft | 410 kts | 244° |
| 2026-05-05 18:08 | -26.41541 | -49.99870 | 32181 ft | 410 kts | 245° |
| 2026-05-05 18:09 | -26.43904 | -50.05671 | 32182 ft | 410 kts | 245° |
| 2026-05-05 18:09 | -26.46266 | -50.11478 | 32186 ft | 411 kts | 245° |
| 2026-05-05 18:10 | -26.48627 | -50.17286 | 32188 ft | 411 kts | 245° |
| 2026-05-05 18:10 | -26.50966 | -50.23059 | 32189 ft | 410 kts | 245° |
| 2026-05-05 18:11 | -26.53317 | -50.28862 | 32198 ft | 410 kts | 245° |
| 2026-05-05 18:11 | -26.55663 | -50.34664 | 32194 ft | 410 kts | 245° |
| 2026-05-05 18:12 | -26.57996 | -50.40470 | 32195 ft | 409 kts | 245° |
| 2026-05-05 18:12 | -26.60289 | -50.46284 | 32190 ft | 409 kts | 245° |
| 2026-05-05 18:13 | -26.62572 | -50.52092 | 32189 ft | 408 kts | 245° |
| 2026-05-05 18:13 | -26.64870 | -50.57882 | 32179 ft | 407 kts | 245° |
| 2026-05-05 18:14 | -26.67191 | -50.63655 | 32173 ft | 407 kts | 245° |
| 2026-05-05 18:14 | -26.69517 | -50.69432 | 32171 ft | 407 kts | 245° |
| 2026-05-05 18:15 | -26.71834 | -50.75195 | 32179 ft | 407 kts | 245° |
| 2026-05-05 18:15 | -26.74151 | -50.80980 | 32172 ft | 407 kts | 245° |
| 2026-05-05 18:16 | -26.76458 | -50.86758 | 32178 ft | 407 kts | 245° |
| 2026-05-05 18:16 | -26.78757 | -50.92539 | 32165 ft | 406 kts | 245° |
| 2026-05-05 18:17 | -26.81041 | -50.98281 | 32165 ft | 406 kts | 245° |
| 2026-05-05 18:17 | -26.83339 | -51.04065 | 32161 ft | 406 kts | 245° |
| 2026-05-05 18:18 | -26.85632 | -51.09847 | 32170 ft | 406 kts | 246° |
| 2026-05-05 18:18 | -26.87923 | -51.15636 | 32172 ft | 406 kts | 246° |
| 2026-05-05 18:19 | -26.90214 | -51.21414 | 32167 ft | 406 kts | 246° |
| 2026-05-05 18:19 | -26.92499 | -51.27194 | 32164 ft | 406 kts | 246° |
| 2026-05-05 18:20 | -26.94777 | -51.32978 | 32156 ft | 406 kts | 246° |
| 2026-05-05 18:20 | -26.97063 | -51.38760 | 32159 ft | 406 kts | 246° |
| 2026-05-05 18:21 | -26.99343 | -51.44553 | 32162 ft | 406 kts | 246° |
| 2026-05-05 18:21 | -27.01612 | -51.50349 | 32160 ft | 406 kts | 246° |
| 2026-05-05 18:22 | -27.03879 | -51.56141 | 32157 ft | 405 kts | 246° |
| 2026-05-05 18:22 | -27.06147 | -51.61935 | 32157 ft | 405 kts | 246° |
| 2026-05-05 18:23 | -27.08407 | -51.67724 | 32153 ft | 405 kts | 246° |
| 2026-05-05 18:23 | -27.10665 | -51.73508 | 32150 ft | 405 kts | 246° |
| 2026-05-05 18:24 | -27.12924 | -51.79288 | 32146 ft | 405 kts | 246° |
| 2026-05-05 18:24 | -27.15179 | -51.85077 | 32139 ft | 404 kts | 246° |
| 2026-05-05 18:25 | -27.17424 | -51.90858 | 32135 ft | 404 kts | 246° |
| 2026-05-05 18:25 | -27.19669 | -51.96630 | 32136 ft | 403 kts | 246° |
| 2026-05-05 18:26 | -27.21905 | -52.02404 | 32129 ft | 403 kts | 246° |
| 2026-05-05 18:26 | -27.24135 | -52.08182 | 32129 ft | 403 kts | 246° |
| 2026-05-05 18:27 | -27.26366 | -52.13960 | 32121 ft | 403 kts | 246° |
| 2026-05-05 18:27 | -27.28589 | -52.19731 | 32123 ft | 402 kts | 246° |
| 2026-05-05 18:28 | -27.31922 | -52.28391 | 32111 ft | 402 kts | 246° |
| 2026-05-05 18:28 | -27.34119 | -52.34128 | 32113 ft | 402 kts | 247° |
| 2026-05-05 18:29 | -27.36335 | -52.39910 | 32130 ft | 402 kts | 246° |
| 2026-05-05 18:29 | -27.38550 | -52.45689 | 32134 ft | 402 kts | 247° |
| 2026-05-05 18:30 | -27.40757 | -52.51479 | 32131 ft | 402 kts | 247° |
| 2026-05-05 18:30 | -27.42959 | -52.57267 | 32129 ft | 402 kts | 247° |
| 2026-05-05 18:31 | -27.45162 | -52.63048 | 32127 ft | 402 kts | 247° |
| 2026-05-05 18:31 | -27.47367 | -52.68829 | 32115 ft | 401 kts | 247° |
| 2026-05-05 18:32 | -27.49569 | -52.74603 | 32106 ft | 401 kts | 247° |
| 2026-05-05 18:32 | -27.51758 | -52.80380 | 32102 ft | 401 kts | 247° |
| 2026-05-05 18:33 | -27.53942 | -52.86153 | 32097 ft | 400 kts | 247° |
| 2026-05-05 18:33 | -27.56118 | -52.91927 | 32094 ft | 400 kts | 247° |
| 2026-05-05 18:34 | -27.58296 | -52.97698 | 32090 ft | 400 kts | 247° |
| 2026-05-05 18:34 | -27.60471 | -53.03476 | 32090 ft | 400 kts | 247° |
| 2026-05-05 18:35 | -27.62648 | -53.09249 | 32089 ft | 400 kts | 247° |
| 2026-05-05 18:35 | -27.64824 | -53.15028 | 32081 ft | 400 kts | 247° |
| 2026-05-05 18:36 | -27.66988 | -53.20804 | 32086 ft | 400 kts | 248° |
| 2026-05-05 18:36 | -27.69141 | -53.26580 | 32084 ft | 399 kts | 248° |
| 2026-05-05 18:37 | -27.71285 | -53.32317 | 32088 ft | 400 kts | 248° |
| 2026-05-05 18:37 | -27.73457 | -53.38137 | 32087 ft | 400 kts | 248° |
| 2026-05-05 18:38 | -27.75612 | -53.43881 | 32091 ft | 400 kts | 248° |
| 2026-05-05 18:38 | -27.77768 | -53.49673 | 32088 ft | 400 kts | 248° |
| 2026-05-05 18:39 | -27.79918 | -53.55465 | 32086 ft | 400 kts | 248° |
| 2026-05-05 18:39 | -27.82075 | -53.61255 | 32089 ft | 400 kts | 248° |
| 2026-05-05 18:40 | -27.84231 | -53.67049 | 32080 ft | 400 kts | 248° |
| 2026-05-05 18:40 | -27.86375 | -53.72845 | 32090 ft | 400 kts | 248° |
| 2026-05-05 18:41 | -27.88518 | -53.78637 | 32079 ft | 399 kts | 248° |
| 2026-05-05 18:41 | -27.90649 | -53.84431 | 32073 ft | 399 kts | 248° |
| 2026-05-05 18:42 | -27.92774 | -53.90224 | 32068 ft | 399 kts | 248° |
| 2026-05-05 18:42 | -27.94909 | -53.96016 | 32060 ft | 399 kts | 248° |
| 2026-05-05 18:43 | -27.96683 | -54.00826 | 32061 ft | 398 kts | 248° |
| 2026-05-05 18:43 | -27.98811 | -54.06614 | 32061 ft | 398 kts | 248° |
| 2026-05-05 18:44 | -28.00923 | -54.12405 | 32057 ft | 398 kts | 248° |
| 2026-05-05 18:44 | -28.03039 | -54.18198 | 32057 ft | 398 kts | 248° |
| 2026-05-05 18:45 | -28.05157 | -54.23980 | 32054 ft | 398 kts | 249° |
| 2026-05-05 18:45 | -28.07267 | -54.29772 | 32055 ft | 398 kts | 249° |
| 2026-05-05 18:46 | -28.09374 | -54.35565 | 32055 ft | 398 kts | 249° |
| 2026-05-05 18:46 | -28.11484 | -54.41355 | 32048 ft | 398 kts | 249° |
| 2026-05-05 18:47 | -28.13589 | -54.47150 | 32043 ft | 398 kts | 249° |
| 2026-05-05 18:47 | -28.15691 | -54.52955 | 32036 ft | 398 kts | 249° |
| 2026-05-05 18:48 | -28.17786 | -54.58758 | 32026 ft | 398 kts | 249° |
| 2026-05-05 18:48 | -28.19880 | -54.64565 | 32028 ft | 398 kts | 249° |
| 2026-05-05 18:49 | -28.21979 | -54.70372 | 32030 ft | 398 kts | 249° |
| 2026-05-05 18:49 | -28.24070 | -54.76177 | 32033 ft | 398 kts | 249° |
| 2026-05-05 18:50 | -28.26155 | -54.81992 | 32030 ft | 398 kts | 249° |
| 2026-05-05 18:50 | -28.28248 | -54.87806 | 32029 ft | 398 kts | 249° |
| 2026-05-05 18:51 | -28.30332 | -54.93616 | 32030 ft | 397 kts | 249° |
| 2026-05-05 18:51 | -28.32408 | -54.99425 | 32028 ft | 397 kts | 249° |
| 2026-05-05 18:52 | -28.34473 | -55.05194 | 32022 ft | 397 kts | 249° |
| 2026-05-05 18:52 | -28.36542 | -55.11001 | 32018 ft | 397 kts | 249° |
| 2026-05-05 18:53 | -28.38610 | -55.16803 | 32016 ft | 396 kts | 249° |
| 2026-05-05 18:53 | -28.40674 | -55.22609 | 32011 ft | 396 kts | 249° |
| 2026-05-05 18:54 | -28.42732 | -55.28414 | 32014 ft | 396 kts | 249° |
| 2026-05-05 18:54 | -28.44790 | -55.34215 | 32013 ft | 396 kts | 249° |
| 2026-05-05 18:55 | -28.46844 | -55.40022 | 32012 ft | 396 kts | 249° |
| 2026-05-05 18:55 | -28.48896 | -55.45830 | 32010 ft | 396 kts | 249° |
| 2026-05-05 18:56 | -28.50947 | -55.51639 | 32008 ft | 396 kts | 249° |
| 2026-05-05 18:56 | -28.52993 | -55.57449 | 32008 ft | 395 kts | 250° |
| 2026-05-05 18:57 | -28.55027 | -55.63247 | 32005 ft | 395 kts | 250° |
| 2026-05-05 18:57 | -28.57072 | -55.69059 | 31997 ft | 395 kts | 250° |
| 2026-05-05 18:58 | -28.59100 | -55.74841 | 32004 ft | 395 kts | 250° |
| 2026-05-05 18:58 | -28.61129 | -55.80652 | 32002 ft | 395 kts | 250° |
| 2026-05-05 18:59 | -28.63157 | -55.86452 | 32000 ft | 394 kts | 250° |
| 2026-05-05 18:59 | -28.65190 | -55.92261 | 31996 ft | 394 kts | 250° |
| 2026-05-05 19:00 | -28.67212 | -55.98065 | 31991 ft | 394 kts | 250° |
| 2026-05-05 19:00 | -28.69234 | -56.03892 | 31996 ft | 395 kts | 250° |
| 2026-05-05 19:01 | -28.71236 | -56.09662 | 31997 ft | 394 kts | 250° |
| 2026-05-05 19:01 | -28.73257 | -56.15478 | 31994 ft | 394 kts | 250° |
| 2026-05-05 19:02 | -28.75319 | -56.21262 | 31997 ft | 394 kts | 249° |
| 2026-05-05 19:02 | -28.77401 | -56.27033 | 31998 ft | 394 kts | 249° |
| 2026-05-05 19:03 | -28.79474 | -56.32812 | 31997 ft | 393 kts | 249° |
| 2026-05-05 19:03 | -28.81534 | -56.38578 | 31997 ft | 393 kts | 249° |
| 2026-05-05 19:04 | -28.83595 | -56.44351 | 31991 ft | 392 kts | 250° |
| 2026-05-05 19:04 | -28.85639 | -56.50128 | 31987 ft | 392 kts | 250° |
| 2026-05-05 19:05 | -28.87679 | -56.55893 | 31983 ft | 392 kts | 250° |
| 2026-05-05 19:05 | -28.89724 | -56.61621 | 31985 ft | 392 kts | 250° |
| 2026-05-05 19:06 | -28.91776 | -56.67389 | 31978 ft | 392 kts | 250° |
| 2026-05-05 19:06 | -28.93822 | -56.73160 | 31977 ft | 392 kts | 250° |
| 2026-05-05 19:07 | -28.95860 | -56.78926 | 31979 ft | 392 kts | 250° |
| 2026-05-05 19:07 | -28.97893 | -56.84706 | 31983 ft | 392 kts | 250° |
| 2026-05-05 19:08 | -28.99927 | -56.90477 | 31985 ft | 392 kts | 250° |
| 2026-05-05 19:08 | -29.01965 | -56.96259 | 31989 ft | 392 kts | 250° |
| 2026-05-05 19:09 | -29.03993 | -57.02035 | 31985 ft | 392 kts | 250° |
| 2026-05-05 19:09 | -29.06009 | -57.07814 | 31982 ft | 391 kts | 250° |
| 2026-05-05 19:10 | -29.08017 | -57.13558 | 31986 ft | 391 kts | 250° |
| 2026-05-05 19:10 | -29.10037 | -57.19336 | 31981 ft | 391 kts | 250° |
| 2026-05-05 19:11 | -29.12047 | -57.25100 | 31980 ft | 390 kts | 250° |
| 2026-05-05 19:11 | -29.14056 | -57.30869 | 31977 ft | 390 kts | 250° |
| 2026-05-05 19:12 | -29.16060 | -57.36631 | 31973 ft | 389 kts | 250° |
| 2026-05-05 19:12 | -29.18058 | -57.42377 | 31968 ft | 389 kts | 250° |
| 2026-05-05 19:13 | -29.20042 | -57.48104 | 31969 ft | 388 kts | 250° |
| 2026-05-05 19:13 | -29.22026 | -57.53848 | 31964 ft | 388 kts | 250° |
| 2026-05-05 19:14 | -29.24014 | -57.59602 | 31959 ft | 388 kts | 250° |
| 2026-05-05 19:14 | -29.26051 | -57.65327 | 31963 ft | 388 kts | 249° |
| 2026-05-05 19:15 | -29.28192 | -57.71015 | 31954 ft | 388 kts | 249° |
| 2026-05-05 19:15 | -29.30338 | -57.76687 | 31953 ft | 388 kts | 249° |
| 2026-05-05 19:16 | -29.32473 | -57.82385 | 31952 ft | 388 kts | 249° |
| 2026-05-05 19:16 | -29.34594 | -57.88071 | 31952 ft | 388 kts | 249° |
| 2026-05-05 19:17 | -29.36698 | -57.93734 | 31958 ft | 388 kts | 249° |
| 2026-05-05 19:17 | -29.38805 | -57.99430 | 31953 ft | 388 kts | 249° |
| 2026-05-05 19:18 | -29.40908 | -58.05120 | 31952 ft | 388 kts | 249° |
| 2026-05-05 19:18 | -29.42961 | -58.10833 | 31948 ft | 387 kts | 251° |
| 2026-05-05 19:19 | -29.44827 | -58.16613 | 31948 ft | 386 kts | 252° |
| 2026-05-05 19:19 | -29.46650 | -58.22416 | 31945 ft | 386 kts | 252° |
| 2026-05-05 19:20 | -29.48507 | -58.28205 | 31952 ft | 386 kts | 251° |
| 2026-05-05 19:20 | -29.50374 | -58.33986 | 31945 ft | 386 kts | 251° |
| 2026-05-05 19:21 | -29.52248 | -58.39762 | 31942 ft | 386 kts | 251° |
| 2026-05-05 19:21 | -29.54113 | -58.45538 | 31943 ft | 386 kts | 252° |
| 2026-05-05 19:22 | -29.55971 | -58.51313 | 31941 ft | 385 kts | 252° |
| 2026-05-05 19:22 | -29.57823 | -58.57087 | 31934 ft | 385 kts | 252° |
| 2026-05-05 19:23 | -29.59660 | -58.62854 | 31935 ft | 384 kts | 252° |
| 2026-05-05 19:23 | -29.61502 | -58.68618 | 31923 ft | 384 kts | 252° |
| 2026-05-05 19:24 | -29.63345 | -58.74375 | 31919 ft | 384 kts | 252° |
| 2026-05-05 19:24 | -29.65177 | -58.80136 | 31917 ft | 384 kts | 252° |
| 2026-05-05 19:25 | -29.67003 | -58.85898 | 31916 ft | 384 kts | 252° |
| 2026-05-05 19:25 | -29.68529 | -58.90690 | 31919 ft | 384 kts | 251° |
| 2026-05-05 19:26 | -29.70437 | -58.96428 | 31918 ft | 384 kts | 251° |
| 2026-05-05 19:26 | -29.72365 | -59.02159 | 31917 ft | 383 kts | 251° |
| 2026-05-05 19:27 | -29.74272 | -59.07887 | 31912 ft | 383 kts | 251° |
| 2026-05-05 19:27 | -29.76162 | -59.13618 | 31915 ft | 383 kts | 251° |
| 2026-05-05 19:28 | -29.78057 | -59.19355 | 31912 ft | 383 kts | 251° |
| 2026-05-05 19:28 | -29.79949 | -59.25084 | 31915 ft | 383 kts | 251° |
| 2026-05-05 19:29 | -29.81833 | -59.30820 | 31915 ft | 383 kts | 251° |
| 2026-05-05 19:29 | -29.83715 | -59.36557 | 31911 ft | 382 kts | 251° |
| 2026-05-05 19:30 | -29.85593 | -59.42287 | 31916 ft | 382 kts | 252° |
| 2026-05-05 19:30 | -29.87452 | -59.47975 | 31913 ft | 382 kts | 252° |
| 2026-05-05 19:31 | -29.89323 | -59.53706 | 31915 ft | 382 kts | 252° |
| 2026-05-05 19:31 | -29.91191 | -59.59431 | 31910 ft | 381 kts | 252° |
| 2026-05-05 19:32 | -29.93051 | -59.65158 | 31912 ft | 381 kts | 252° |
| 2026-05-05 19:32 | -29.94916 | -59.70880 | 31911 ft | 381 kts | 252° |
| 2026-05-05 19:33 | -29.96773 | -59.76598 | 31908 ft | 381 kts | 252° |
| 2026-05-05 19:33 | -29.98628 | -59.82322 | 31908 ft | 381 kts | 252° |
| 2026-05-05 19:34 | -30.00472 | -59.88047 | 31905 ft | 381 kts | 252° |
| 2026-05-05 19:35 | -30.03245 | -59.96630 | 31899 ft | 381 kts | 252° |
| 2026-05-05 19:35 | -30.05088 | -60.02360 | 31897 ft | 380 kts | 252° |
| 2026-05-05 19:36 | -30.06928 | -60.08086 | 31897 ft | 380 kts | 252° |
| 2026-05-05 19:36 | -30.08767 | -60.13810 | 31899 ft | 380 kts | 252° |
| 2026-05-05 19:37 | -30.10601 | -60.19529 | 31895 ft | 380 kts | 252° |
| 2026-05-05 19:37 | -30.12431 | -60.25249 | 31895 ft | 380 kts | 252° |
| 2026-05-05 19:38 | -30.14260 | -60.30973 | 31895 ft | 379 kts | 252° |
| 2026-05-05 19:38 | -30.16075 | -60.36688 | 31896 ft | 379 kts | 253° |
| 2026-05-05 19:39 | -30.17887 | -60.42409 | 31897 ft | 379 kts | 252° |
| 2026-05-05 19:39 | -30.19692 | -60.48086 | 31891 ft | 378 kts | 252° |
| 2026-05-05 19:40 | -30.21506 | -60.53798 | 31890 ft | 378 kts | 253° |
| 2026-05-05 19:40 | -30.23314 | -60.59511 | 31890 ft | 378 kts | 253° |
| 2026-05-05 19:41 | -30.25124 | -60.65217 | 31886 ft | 378 kts | 253° |
| 2026-05-05 19:41 | -30.26930 | -60.70920 | 31883 ft | 377 kts | 253° |
| 2026-05-05 19:42 | -30.28716 | -60.76627 | 31886 ft | 377 kts | 253° |
| 2026-05-05 19:42 | -30.30506 | -60.82328 | 31882 ft | 377 kts | 253° |
| 2026-05-05 19:43 | -30.32306 | -60.88030 | 31886 ft | 376 kts | 253° |
| 2026-05-05 19:43 | -30.34091 | -60.93721 | 31884 ft | 376 kts | 253° |
| 2026-05-05 19:44 | -30.35872 | -60.99413 | 31880 ft | 376 kts | 253° |
| 2026-05-05 19:44 | -30.37647 | -61.05094 | 31878 ft | 375 kts | 253° |
| 2026-05-05 19:45 | -30.39417 | -61.10775 | 31872 ft | 375 kts | 253° |
| 2026-05-05 19:45 | -30.41179 | -61.16450 | 31875 ft | 374 kts | 253° |
| 2026-05-05 19:46 | -30.42949 | -61.22119 | 31871 ft | 374 kts | 253° |
| 2026-05-05 19:46 | -30.44703 | -61.27747 | 31868 ft | 374 kts | 253° |
| 2026-05-05 19:47 | -30.46462 | -61.33409 | 31868 ft | 373 kts | 253° |
| 2026-05-05 19:47 | -30.48227 | -61.39075 | 31865 ft | 373 kts | 253° |
| 2026-05-05 19:48 | -30.49981 | -61.44736 | 31862 ft | 373 kts | 253° |
| 2026-05-05 19:48 | -30.51732 | -61.50397 | 31861 ft | 372 kts | 253° |
| 2026-05-05 19:49 | -30.53473 | -61.56052 | 31860 ft | 372 kts | 253° |
| 2026-05-05 19:49 | -30.55210 | -61.61705 | 31856 ft | 372 kts | 253° |
| 2026-05-05 19:50 | -30.56945 | -61.67359 | 31858 ft | 372 kts | 254° |
| 2026-05-05 19:50 | -30.58673 | -61.73019 | 31861 ft | 372 kts | 254° |
| 2026-05-05 19:51 | -30.60392 | -61.78677 | 31860 ft | 371 kts | 254° |
| 2026-05-05 19:51 | -30.62105 | -61.84329 | 31862 ft | 371 kts | 254° |
| 2026-05-05 19:52 | -30.63816 | -61.89986 | 31868 ft | 371 kts | 254° |
| 2026-05-05 19:52 | -30.65511 | -61.95612 | 31874 ft | 370 kts | 254° |
| 2026-05-05 19:53 | -30.67212 | -62.01261 | 31871 ft | 370 kts | 254° |
| 2026-05-05 19:53 | -30.68908 | -62.06899 | 31869 ft | 369 kts | 254° |
| 2026-05-05 19:54 | -30.70606 | -62.12529 | 31870 ft | 369 kts | 254° |
| 2026-05-05 19:54 | -30.72300 | -62.18162 | 31868 ft | 369 kts | 254° |
| 2026-05-05 19:55 | -30.73702 | -62.22848 | 31871 ft | 369 kts | 254° |
| 2026-05-05 19:55 | -30.75671 | -62.29435 | 31870 ft | 369 kts | 254° |
| 2026-05-05 19:56 | -30.77348 | -62.35070 | 31875 ft | 368 kts | 254° |
| 2026-05-05 19:56 | -30.79025 | -62.40703 | 31871 ft | 368 kts | 254° |
| 2026-05-05 19:57 | -30.80704 | -62.46296 | 31874 ft | 369 kts | 254° |
| 2026-05-05 19:57 | -30.82395 | -62.51926 | 31876 ft | 369 kts | 254° |
| 2026-05-05 19:58 | -30.84080 | -62.57562 | 31881 ft | 369 kts | 254° |
| 2026-05-05 19:58 | -30.85758 | -62.63193 | 31883 ft | 368 kts | 255° |
| 2026-05-05 19:59 | -30.87436 | -62.68830 | 31884 ft | 368 kts | 255° |
| 2026-05-05 19:59 | -30.89115 | -62.74463 | 31888 ft | 368 kts | 255° |
| 2026-05-05 20:00 | -30.90790 | -62.80099 | 31889 ft | 368 kts | 255° |
| 2026-05-05 20:00 | -30.92459 | -62.85732 | 31892 ft | 368 kts | 255° |
| 2026-05-05 20:01 | -30.94122 | -62.91372 | 31892 ft | 368 kts | 255° |
| 2026-05-05 20:01 | -30.95786 | -62.97002 | 31890 ft | 368 kts | 255° |
| 2026-05-05 20:02 | -30.97454 | -63.02634 | 31887 ft | 367 kts | 255° |
| 2026-05-05 20:02 | -30.99109 | -63.08268 | 31879 ft | 367 kts | 255° |
| 2026-05-05 20:03 | -31.00760 | -63.13894 | 31878 ft | 367 kts | 255° |
| 2026-05-05 20:03 | -31.02405 | -63.19517 | 31883 ft | 366 kts | 255° |
| 2026-05-05 20:04 | -31.04044 | -63.25140 | 31877 ft | 366 kts | 255° |
| 2026-05-05 20:04 | -31.05679 | -63.30769 | 31876 ft | 366 kts | 255° |
| 2026-05-05 20:05 | -31.07311 | -63.36388 | 31876 ft | 366 kts | 255° |
| 2026-05-05 20:05 | -31.08936 | -63.42013 | 31873 ft | 366 kts | 255° |
| 2026-05-05 20:06 | -31.10564 | -63.47641 | 31872 ft | 366 kts | 255° |
| 2026-05-05 20:06 | -31.12189 | -63.53263 | 31864 ft | 366 kts | 255° |
| 2026-05-05 20:07 | -31.13801 | -63.58854 | 31864 ft | 366 kts | 255° |
| 2026-05-05 20:07 | -31.15417 | -63.64483 | 31871 ft | 366 kts | 255° |
| 2026-05-05 20:08 | -31.17037 | -63.70116 | 31872 ft | 366 kts | 255° |
| 2026-05-05 20:08 | -31.18655 | -63.75745 | 31869 ft | 366 kts | 256° |
| 2026-05-05 20:09 | -31.20266 | -63.81385 | 31877 ft | 366 kts | 256° |
| 2026-05-05 20:09 | -31.21870 | -63.87022 | 31893 ft | 366 kts | 256° |
| 2026-05-05 20:10 | -31.23477 | -63.92666 | 31899 ft | 366 kts | 256° |
| 2026-05-05 20:10 | -31.24810 | -63.97358 | 31904 ft | 366 kts | 256° |
| 2026-05-05 20:11 | -31.26420 | -64.03003 | 31924 ft | 366 kts | 256° |
| 2026-05-05 20:11 | -31.28025 | -64.08649 | 31921 ft | 366 kts | 256° |
| 2026-05-05 20:12 | -31.29618 | -64.14290 | 31916 ft | 365 kts | 256° |
| 2026-05-05 20:12 | -31.31199 | -64.19931 | 31922 ft | 365 kts | 256° |
| 2026-05-05 20:13 | -31.33002 | -64.25495 | 31915 ft | 367 kts | 252° |
| 2026-05-05 20:13 | -31.35019 | -64.30990 | 31918 ft | 368 kts | 251° |
| 2026-05-05 20:14 | -31.37028 | -64.36485 | 31914 ft | 367 kts | 252° |
| 2026-05-05 20:14 | -31.38988 | -64.41994 | 31915 ft | 366 kts | 252° |
| 2026-05-05 20:15 | -31.40926 | -64.47516 | 31917 ft | 367 kts | 252° |
| 2026-05-05 20:15 | -31.42861 | -64.53041 | 31923 ft | 367 kts | 252° |
| 2026-05-05 20:16 | -31.44800 | -64.58565 | 31926 ft | 367 kts | 252° |
| 2026-05-05 20:16 | -31.46738 | -64.64094 | 31926 ft | 367 kts | 252° |
| 2026-05-05 20:17 | -31.48675 | -64.69622 | 31931 ft | 367 kts | 253° |
| 2026-05-05 20:17 | -31.50606 | -64.75151 | 31927 ft | 367 kts | 253° |
| 2026-05-05 20:18 | -31.52540 | -64.80693 | 31925 ft | 368 kts | 253° |
| 2026-05-05 20:18 | -31.54469 | -64.86244 | 31934 ft | 368 kts | 253° |
| 2026-05-05 20:19 | -31.56403 | -64.91804 | 31929 ft | 367 kts | 253° |
| 2026-05-05 20:19 | -31.58331 | -64.97354 | 31924 ft | 367 kts | 253° |
| 2026-05-05 20:20 | -31.60256 | -65.02905 | 31910 ft | 368 kts | 253° |
| 2026-05-05 20:20 | -31.62172 | -65.08458 | 31899 ft | 367 kts | 253° |
| 2026-05-05 20:21 | -31.64095 | -65.14015 | 31890 ft | 367 kts | 253° |
| 2026-05-05 20:21 | -31.65997 | -65.19537 | 31882 ft | 367 kts | 253° |
| 2026-05-05 20:22 | -31.67912 | -65.25100 | 31877 ft | 368 kts | 253° |
| 2026-05-05 20:22 | -31.69830 | -65.30670 | 31864 ft | 368 kts | 253° |
| 2026-05-05 20:23 | -31.71741 | -65.36236 | 31859 ft | 367 kts | 253° |
| 2026-05-05 20:23 | -31.73648 | -65.41814 | 31855 ft | 368 kts | 253° |
| 2026-05-05 20:24 | -31.75553 | -65.47387 | 31855 ft | 368 kts | 253° |
| 2026-05-05 20:24 | -31.77464 | -65.52973 | 31854 ft | 368 kts | 253° |
| 2026-05-05 20:25 | -31.79366 | -65.58561 | 31850 ft | 368 kts | 253° |
| 2026-05-05 20:25 | -31.81271 | -65.64156 | 31848 ft | 369 kts | 254° |
| 2026-05-05 20:26 | -31.83175 | -65.69752 | 31849 ft | 369 kts | 254° |
| 2026-05-05 20:26 | -31.85079 | -65.75363 | 31844 ft | 369 kts | 254° |
| 2026-05-05 20:27 | -31.86980 | -65.80974 | 31842 ft | 369 kts | 254° |
| 2026-05-05 20:27 | -31.88879 | -65.86599 | 31837 ft | 370 kts | 254° |
| 2026-05-05 20:28 | -31.90775 | -65.92224 | 31836 ft | 370 kts | 254° |
| 2026-05-05 20:28 | -31.92659 | -65.97823 | 31833 ft | 370 kts | 254° |
| 2026-05-05 20:29 | -31.94557 | -66.03466 | 31831 ft | 371 kts | 254° |
| 2026-05-05 20:29 | -31.96451 | -66.09116 | 31829 ft | 371 kts | 254° |
| 2026-05-05 20:30 | -31.98342 | -66.14778 | 31822 ft | 372 kts | 254° |
| 2026-05-05 20:30 | -32.00235 | -66.20452 | 31813 ft | 372 kts | 254° |
| 2026-05-05 20:31 | -32.02135 | -66.26138 | 31811 ft | 373 kts | 254° |
| 2026-05-05 20:31 | -32.04028 | -66.31836 | 31801 ft | 374 kts | 254° |
| 2026-05-05 20:32 | -32.05922 | -66.37551 | 31795 ft | 375 kts | 254° |
| 2026-05-05 20:32 | -32.07823 | -66.43277 | 31800 ft | 376 kts | 254° |
| 2026-05-05 20:33 | -32.09724 | -66.49035 | 31793 ft | 376 kts | 254° |
| 2026-05-05 20:33 | -32.11318 | -66.54877 | 31792 ft | 373 kts | 259° |
| 2026-05-05 20:34 | -32.12720 | -66.60778 | 31786 ft | 374 kts | 259° |
| 2026-05-05 20:34 | -32.14127 | -66.66689 | 31785 ft | 374 kts | 259° |
| 2026-05-05 20:35 | -32.15537 | -66.72610 | 31784 ft | 375 kts | 259° |
| 2026-05-05 20:35 | -32.16945 | -66.78548 | 31784 ft | 376 kts | 259° |
| 2026-05-05 20:36 | -32.18350 | -66.84487 | 31789 ft | 376 kts | 259° |
| 2026-05-05 20:36 | -32.19754 | -66.90447 | 31788 ft | 377 kts | 259° |
| 2026-05-05 20:37 | -32.21148 | -66.96381 | 31793 ft | 378 kts | 259° |
| 2026-05-05 20:37 | -32.22558 | -67.02371 | 31796 ft | 378 kts | 259° |
| 2026-05-05 20:38 | -32.23967 | -67.08368 | 31793 ft | 379 kts | 259° |
| 2026-05-05 20:38 | -32.25372 | -67.14379 | 31796 ft | 380 kts | 259° |
| 2026-05-05 20:39 | -32.26772 | -67.20405 | 31793 ft | 380 kts | 259° |
| 2026-05-05 20:39 | -32.28173 | -67.26437 | 31792 ft | 381 kts | 259° |
| 2026-05-05 20:40 | -32.29572 | -67.32472 | 31798 ft | 381 kts | 259° |
| 2026-05-05 20:40 | -32.30978 | -67.38520 | 31795 ft | 382 kts | 259° |
| 2026-05-05 20:41 | -32.32371 | -67.44541 | 31799 ft | 382 kts | 259° |
| 2026-05-05 20:41 | -32.33765 | -67.50605 | 31799 ft | 382 kts | 259° |
| 2026-05-05 20:42 | -32.35158 | -67.56678 | 31802 ft | 383 kts | 259° |
| 2026-05-05 20:42 | -32.36553 | -67.62753 | 31807 ft | 383 kts | 259° |
| 2026-05-05 20:43 | -32.37947 | -67.68836 | 31809 ft | 383 kts | 259° |
| 2026-05-05 20:43 | -32.39336 | -67.74921 | 31810 ft | 383 kts | 259° |
| 2026-05-05 20:44 | -32.40722 | -67.81013 | 31811 ft | 383 kts | 259° |
| 2026-05-05 20:44 | -32.42105 | -67.87108 | 31816 ft | 383 kts | 259° |
| 2026-05-05 20:45 | -32.44171 | -67.96250 | 31817 ft | 383 kts | 259° |
| 2026-05-05 20:45 | -32.45543 | -68.02345 | 31822 ft | 383 kts | 259° |
| 2026-05-05 20:46 | -32.46908 | -68.08399 | 31828 ft | 383 kts | 259° |
| 2026-05-05 20:46 | -32.48276 | -68.14486 | 31828 ft | 382 kts | 259° |
| 2026-05-05 20:47 | -32.49646 | -68.20572 | 31829 ft | 382 kts | 259° |
| 2026-05-05 20:47 | -32.51001 | -68.26655 | 31832 ft | 382 kts | 260° |
| 2026-05-05 20:48 | -32.52358 | -68.32740 | 31830 ft | 381 kts | 260° |
| 2026-05-05 20:48 | -32.53710 | -68.38820 | 31834 ft | 381 kts | 260° |
| 2026-05-05 20:49 | -32.55051 | -68.44891 | 31831 ft | 381 kts | 260° |
| 2026-05-05 20:49 | -32.56384 | -68.50922 | 31832 ft | 380 kts | 260° |
| 2026-05-05 20:50 | -32.57508 | -68.56005 | 31848 ft | 380 kts | 261° |
| 2026-05-05 20:50 | -32.59067 | -68.63086 | 31860 ft | 380 kts | 261° |
| 2026-05-05 20:51 | -32.60392 | -68.69106 | 31870 ft | 379 kts | 261° |
| 2026-05-05 20:51 | -32.61727 | -68.75157 | 31879 ft | 379 kts | 261° |
| 2026-05-05 20:52 | -32.63049 | -68.81212 | 31882 ft | 379 kts | 261° |
| 2026-05-05 20:52 | -32.64365 | -68.87265 | 31881 ft | 379 kts | 261° |
| 2026-05-05 20:53 | -32.65679 | -68.93322 | 31882 ft | 379 kts | 261° |